SACO Airport Information

Runway Information
Runway 05 Length 7218 ft width 148 ft
Elevation 1526 ft Threshold 840 ft Heading 43
Runway 23 Length 7218 ft Width 148 ft
Elevation 1539 ft Threshold 0 ft Heading 223
Runway 18 Length 10499 ft width 148 ft
Elevation 1604 ft Threshold 0 ft Heading 178
Runway 36 Length 10499 ft Width 148 ft
Elevation 1522 ft Threshold 0 ft Heading 358
Airport Frequencies
Type ATIS Name ATIS Frequency 114.5 MHZ
Type GND Name GND Frequency 121.75 MHZ
Type MISC Name METAR NOTA Frequency 342.55 MHZ
Type TWR Name CORDOBA TW Frequency 118.3 MHZ
Airport Navaids
Type VOR-DME Name Cordoba Frequency 114500 KHZ
Type NDB Name Cordoba Frequency 350 KHZ
Airport Weather Information & NOTAM
ADDS - METARS form results

(1439 UTC 22 February 2018)
 
METAR text: SACO 221400Z 05008KT CAVOK 25/11 Q1019
Conditions at: SACO (CORDOBA AIRPORT , AR) observed 1400 UTC 22 February 2018
Temperature: 25.0°C (77°F)
Dewpoint: 11.0°C (52°F) [RH = 41%]
Pressure (altimeter): 30.09 inches Hg (1019.0 mb)
Winds: from the NE (50 degrees) at 9 MPH (8 knots; 4.2 m/s)
Visibility: 6 or more miles (10+ km)
Ceiling: ceiling and visibility are OK
Clouds: unknown
Weather: no significant weather observed at this time